Airfield :
LOGIN :

Register | Disclaimer

   EN    FR    IT 

 










Legend :    VFR   Marginal VFR   IFR   Intensive IFR   Very Intensive IFR
Visi :
Ceiling :
>= 8 km
>= 3000ft
5 to 8 km
1000 to 3000 ft
1500m to 5 km
500 to 1000 ft
800 to 1500m
200 to 500 ft
< 800m
< 200 ft
Symbols :   Thunderstorms  Fog  Heavy snow  Heavy precipitations  Wind > 20 kt
SIGMETs :     Misc.  Thunderstorms  Icing  Turbulence  Mountain Waves  Volcanic Ashes






- Airport Elevation : 299 ft
- IATA code : EDM


LFRI - La Roche Sur Yon - Les Ajoncs

CURRENT METAR :
  • 121300Z AUTO 19016KT 6000 RA OVC007/// ///CB 10/10 Q0993 TEMPO 4500 RA BECMG 29020G30KT SCT020TCU

EXPIRED METARs :
  • 121230Z AUTO 19014KT 7000 RA OVC008/// ///CB 10/09 Q0995 TEMPO 4500 RA BECMG 29020G30KT SCT020TCU
  • 121200Z AUTO 20014KT 9999 -RA BKN008/// OVC012/// ///TCU 10/09 Q0997 BECMG 21015G25KT BKN010 SCT040CB BKN050
  • 121130Z AUTO 20012KT 9999 -RA OVC009/// ///TCU 10/09 Q0999 BECMG 21015G25KT BKN010 SCT040CB BKN050
  • 121100Z AUTO 20011KT 9999 -RA BKN010/// OVC016/// ///CB 10/09 Q1000 BECMG 21015G25KT 4500 RA
  • 121030Z AUTO 20011KT 9000 RA FEW014/// BKN020/// BKN026/// ///CB 10/09 Q1001 BECMG 21015G25KT 4500 RA BKN012 SCT040CB BKN050

TAF AMD TAF LFRI
Valid from the 12 at 12:00 until the 13 at 12:00 UTC


121212Z 1212/1312 21015G25KT 6000 -RA BKN012 SCT040CB BKN050
TEMPO 1212/1214 4500 RA BKN008
BECMG 1214/1216 29020G30KT 9999 SCT020TCU
BECMG 1217/1219 28015KT
TEMPO 1221/1312 25020G32KT 3000 SHRA BKN012 BKN020CB
PROB40
TEMPO 1302/1305 26030G55KT



MET'MAP, your aeronautical weather chart ! - Copyright ORBIFLY December 2007 - Disclaimer

ORBIFLY MET'MAP TEAM :

Programming & Development : Alexandra Zaïnal
Concept & original design : Baudouin d'Aumeries
Assistance for programming : Marc-Olivier Méhu
Technical & hardware support : Manuel Goepfert

Contact : metmap@orbifly.com




SOURCES & CREDITS :

   NOAA